Time;durP1;ratioP1;P1;durP2;ratioP2;P2;SDS_P1;SDS_P2;PMS_P1;PMS_P2;Temp;Humidity;BMP_temperature;BMP_pressure;BME280_temperature;BME280_humidity;BME280_pressure;Samples;Min_cycle;Max_cycle;Signal;HPM_P1;HPM_P2
2023/11/16 00:00:06;;;;;;;12.60;2.50;;;8.00;99.90;;;;;;4944124;28;20450;-64
2023/11/16 00:02:33;;;;;;;11.10;2.83;;;8.00;99.90;;;;;;4979239;28;20033;-64
2023/11/16 00:05:00;;;;;;;13.10;2.53;;;8.00;99.90;;;;;;4983922;28;20030;-64
2023/11/16 00:07:27;;;;;;;10.13;2.50;;;8.00;99.90;;;;;;4983028;28;20070;-64
2023/11/16 00:09:53;;;;;;;6.47;2.58;;;7.90;99.90;;;;;;4980738;28;20451;-64
2023/11/16 00:12:19;;;;;;;13.07;2.67;;;7.90;99.90;;;;;;4984649;28;20058;-64
2023/11/16 00:14:46;;;;;;;12.77;3.15;;;7.90;99.90;;;;;;4982475;28;20037;-64
2023/11/16 00:17:12;;;;;;;11.45;2.70;;;7.90;99.90;;;;;;4983906;28;20026;-64
2023/11/16 00:19:38;;;;;;;6.90;1.90;;;7.90;99.90;;;;;;4983906;28;20022;-64
2023/11/16 00:22:04;;;;;;;12.63;2.53;;;7.90;99.90;;;;;;4976272;28;20042;-63
2023/11/16 00:24:30;;;;;;;8.02;2.40;;;7.90;99.90;;;;;;4984304;28;20431;-64
2023/11/16 00:26:55;;;;;;;11.32;2.33;;;7.90;99.90;;;;;;4981205;28;20046;-63
2023/11/16 00:29:21;;;;;;;14.38;2.50;;;7.90;99.90;;;;;;4980300;28;20113;-63
2023/11/16 00:31:47;;;;;;;10.23;2.33;;;7.80;99.90;;;;;;4981618;28;20084;-63
2023/11/16 00:34:18;;;;;;;5.93;1.83;;;7.90;99.90;;;;;;4981277;28;20026;-63
2023/11/16 00:36:45;;;;;;;12.70;2.53;;;7.90;99.90;;;;;;4984498;28;20026;-63
2023/11/16 00:39:12;;;;;;;8.27;1.70;;;7.90;99.90;;;;;;4980130;28;20027;-65
2023/11/16 00:41:38;;;;;;;13.30;2.75;;;7.90;99.90;;;;;;4981316;28;20597;-63
2023/11/16 00:44:06;;;;;;;10.63;2.35;;;7.90;99.90;;;;;;4982676;28;20097;-64
2023/11/16 00:46:36;;;;;;;10.85;2.58;;;7.90;99.90;;;;;;4981387;28;20037;-64
2023/11/16 00:49:01;;;;;;;11.82;2.70;;;7.90;99.90;;;;;;4981390;28;20041;-63
2023/11/16 00:51:30;;;;;;;16.48;2.50;;;7.90;99.90;;;;;;4982136;28;20023;-63
2023/11/16 00:53:56;;;;;;;8.55;2.22;;;8.00;99.90;;;;;;4979703;28;20410;-63
2023/11/16 00:56:22;;;;;;;11.10;2.40;;;8.00;99.90;;;;;;4983306;28;20222;-63
2023/11/16 00:58:49;;;;;;;13.45;2.63;;;8.00;99.90;;;;;;4979408;28;20093;-64
2023/11/16 01:01:17;;;;;;;14.18;3.13;;;8.00;99.90;;;;;;4983514;28;20015;-63
2023/11/16 01:03:43;;;;;;;9.50;2.30;;;7.90;99.90;;;;;;4982289;28;20038;-65
2023/11/16 01:06:09;;;;;;;18.08;3.42;;;8.00;99.90;;;;;;4983103;28;20035;-63
2023/11/16 01:08:36;;;;;;;9.57;2.08;;;8.00;99.90;;;;;;4983393;28;20101;-63
2023/11/16 01:11:08;;;;;;;13.20;2.92;;;8.00;99.90;;;;;;4978124;28;20238;-63
2023/11/16 01:13:41;;;;;;;10.07;2.35;;;8.00;99.90;;;;;;4981873;28;20042;-63
2023/11/16 01:16:15;;;;;;;16.95;3.05;;;8.00;99.90;;;;;;4975547;28;20038;-63
2023/11/16 01:18:50;;;;;;;13.07;2.13;;;8.00;99.90;;;;;;4978874;28;20118;-63
2023/11/16 01:21:17;;;;;;;14.95;2.60;;;8.00;99.90;;;;;;4980200;28;20023;-63
2023/11/16 01:23:46;;;;;;;7.88;2.00;;;8.00;99.90;;;;;;4975056;28;20034;-63
2023/11/16 01:26:15;;;;;;;10.13;2.33;;;8.00;99.90;;;;;;4980368;28;20117;-63
2023/11/16 01:28:46;;;;;;;10.20;2.08;;;8.00;99.90;;;;;;4981043;28;20125;-63
2023/11/16 01:31:14;;;;;;;17.55;2.88;;;8.00;99.90;;;;;;4979567;28;20118;-63
2023/11/16 01:33:42;;;;;;;10.23;2.30;;;7.90;99.90;;;;;;4982349;28;20305;-63
2023/11/16 01:36:09;;;;;;;9.00;2.40;;;8.00;99.90;;;;;;4949286;28;20038;-63
2023/11/16 01:38:36;;;;;;;12.15;2.55;;;8.00;99.90;;;;;;4979312;28;20524;-63
2023/11/16 01:41:09;;;;;;;9.68;2.45;;;7.90;99.90;;;;;;4982502;28;20022;-63
2023/11/16 01:43:35;;;;;;;7.85;2.25;;;7.90;99.90;;;;;;4948537;28;20034;-63
2023/11/16 01:46:05;;;;;;;10.05;2.22;;;7.90;99.90;;;;;;4978939;28;20165;-63
2023/11/16 01:48:33;;;;;;;17.98;2.88;;;8.00;99.90;;;;;;4982638;28;20026;-64
2023/11/16 01:50:59;;;;;;;9.52;2.28;;;7.90;99.90;;;;;;4975774;28;20038;-65
2023/11/16 01:53:28;;;;;;;8.52;2.10;;;7.90;99.90;;;;;;4981812;28;20811;-65
2023/11/16 01:55:54;;;;;;;15.40;3.10;;;7.90;99.90;;;;;;4980887;28;20067;-63
2023/11/16 01:58:21;;;;;;;8.63;2.97;;;8.00;99.90;;;;;;4978462;28;20056;-63
2023/11/16 02:00:48;;;;;;;9.98;2.33;;;8.00;99.90;;;;;;4982940;28;20034;-63
2023/11/16 02:03:14;;;;;;;11.93;2.55;;;8.00;99.90;;;;;;4981929;28;20900;-63
2023/11/16 02:05:40;;;;;;;7.80;1.98;;;8.00;99.90;;;;;;4981062;28;20121;-63
2023/11/16 02:08:10;;;;;;;11.77;2.03;;;7.90;99.90;;;;;;4980550;28;20026;-63
2023/11/16 02:10:40;;;;;;;12.07;2.70;;;8.00;99.90;;;;;;4979375;28;20503;-63
2023/11/16 02:13:23;;;;;;;4.30;1.70;;;8.00;99.90;;;;;;4949759;28;20607;-63
2023/11/16 02:15:50;;;;;;;13.70;2.20;;;7.90;99.90;;;;;;4978014;28;20043;-63
2023/11/16 02:18:16;;;;;;;13.35;2.55;;;7.90;99.90;;;;;;4980276;28;20030;-63
2023/11/16 02:20:45;;;;;;;9.63;2.40;;;7.90;99.90;;;;;;4980190;28;20030;-63
2023/11/16 02:23:10;;;;;;;11.27;2.60;;;7.90;99.90;;;;;;4978260;28;20070;-63
2023/11/16 02:25:44;;;;;;;12.30;2.60;;;7.90;99.90;;;;;;4980558;28;20108;-63
2023/11/16 02:28:10;;;;;;;14.55;2.65;;;7.90;99.90;;;;;;4973433;28;20030;-63
2023/11/16 02:30:36;;;;;;;7.93;2.00;;;7.90;99.90;;;;;;4980961;28;20477;-63
2023/11/16 02:33:05;;;;;;;7.07;2.20;;;7.80;99.90;;;;;;4980656;28;20031;-63
2023/11/16 02:35:31;;;;;;;12.27;2.22;;;7.80;99.90;;;;;;4982387;28;20030;-63
2023/11/16 02:37:58;;;;;;;11.02;2.33;;;7.80;99.90;;;;;;4974430;28;20035;-63
2023/11/16 02:40:25;;;;;;;12.65;2.88;;;7.80;99.90;;;;;;4981464;28;20030;-63
2023/11/16 02:42:52;;;;;;;10.30;2.35;;;7.80;99.90;;;;;;4976161;28;20074;-64
2023/11/16 02:45:18;;;;;;;12.80;2.83;;;7.80;99.90;;;;;;4979003;28;20125;-64
2023/11/16 02:47:46;;;;;;;17.13;3.28;;;7.80;99.90;;;;;;4977765;28;20036;-64
2023/11/16 02:50:14;;;;;;;11.63;2.40;;;7.80;99.90;;;;;;4972313;28;20086;-64
2023/11/16 02:52:43;;;;;;;10.35;2.33;;;7.80;99.90;;;;;;4981771;28;20126;-65
2023/11/16 02:55:09;;;;;;;14.57;2.90;;;7.90;99.90;;;;;;4980056;28;20097;-64
2023/11/16 02:57:41;;;;;;;11.15;2.80;;;7.80;99.90;;;;;;4982480;28;20031;-64
2023/11/16 03:00:12;;;;;;;6.88;1.83;;;7.80;99.90;;;;;;4978330;28;20049;-64
2023/11/16 03:02:49;;;;;;;10.73;2.42;;;7.80;99.90;;;;;;4986538;28;20024;-64
2023/11/16 03:05:15;;;;;;;10.27;2.38;;;7.90;99.90;;;;;;4981032;28;20035;-64
2023/11/16 03:07:41;;;;;;;8.82;2.10;;;7.90;99.90;;;;;;4984859;28;20034;-64
2023/11/16 03:10:08;;;;;;;10.73;2.55;;;7.90;99.90;;;;;;4983668;28;20038;-64
2023/11/16 03:12:36;;;;;;;14.90;2.70;;;7.90;99.90;;;;;;4983343;28;20038;-64
2023/11/16 03:15:05;;;;;;;13.90;2.90;;;7.80;99.90;;;;;;4985263;28;20490;-64
2023/11/16 03:17:32;;;;;;;9.68;2.10;;;7.80;99.90;;;;;;4983396;28;20097;-64
2023/11/16 03:19:58;;;;;;;13.07;2.85;;;7.80;99.90;;;;;;4982850;28;20594;-64
2023/11/16 03:22:25;;;;;;;9.15;2.28;;;7.80;99.90;;;;;;4984620;28;20026;-64
2023/11/16 03:24:52;;;;;;;10.82;2.95;;;7.80;99.90;;;;;;4982610;28;20716;-64
2023/11/16 03:27:18;;;;;;;12.00;2.90;;;7.80;99.90;;;;;;4978363;28;20031;-64
2023/11/16 03:29:46;;;;;;;11.75;2.63;;;7.80;99.90;;;;;;4983362;28;20033;-64
2023/11/16 03:32:12;;;;;;;9.55;2.63;;;7.70;99.90;;;;;;4983464;28;20042;-65
2023/11/16 03:34:39;;;;;;;8.98;2.25;;;7.70;99.90;;;;;;4985744;28;20117;-64
2023/11/16 03:37:05;;;;;;;16.77;2.75;;;7.70;99.90;;;;;;4980232;28;20126;-65
2023/11/16 03:39:37;;;;;;;13.10;2.83;;;7.70;99.90;;;;;;4985329;28;20092;-64
2023/11/16 03:42:03;;;;;;;12.95;2.38;;;7.80;99.90;;;;;;4983035;28;20415;-64
2023/11/16 03:44:29;;;;;;;11.77;2.95;;;7.70;99.90;;;;;;4981707;28;20035;-64
2023/11/16 03:46:58;;;;;;;13.88;2.88;;;7.80;99.90;;;;;;4945560;29;20728;-64
2023/11/16 03:49:24;;;;;;;13.32;3.03;;;7.90;99.90;;;;;;4945105;28;20027;-64
2023/11/16 03:51:53;;;;;;;9.60;2.90;;;7.80;99.90;;;;;;4982589;28;20050;-65
2023/11/16 03:54:19;;;;;;;15.13;3.03;;;7.80;99.90;;;;;;4985039;28;20030;-66
2023/11/16 03:56:45;;;;;;;9.93;2.28;;;7.80;99.90;;;;;;4982478;28;20027;-64
2023/11/16 03:59:12;;;;;;;8.88;2.05;;;7.70;99.90;;;;;;4983145;28;20050;-66
2023/11/16 04:01:38;;;;;;;11.95;2.30;;;7.70;99.90;;;;;;4984173;28;20026;-66
2023/11/16 04:04:10;;;;;;;10.10;2.65;;;7.80;99.90;;;;;;4983285;28;20026;-66
2023/11/16 04:06:36;;;;;;;11.27;2.85;;;7.80;99.90;;;;;;4986600;28;20050;-66
2023/11/16 04:09:05;;;;;;;8.52;2.15;;;7.70;99.90;;;;;;4984047;28;20073;-65
2023/11/16 04:11:31;;;;;;;12.85;2.35;;;7.60;99.90;;;;;;4978939;28;20031;-66
2023/11/16 04:13:57;;;;;;;9.32;2.75;;;7.60;99.90;;;;;;4983482;28;20038;-66
2023/11/16 04:16:24;;;;;;;9.75;2.53;;;7.60;99.90;;;;;;4978962;28;20474;-66
2023/11/16 04:18:55;;;;;;;9.93;2.55;;;7.50;99.90;;;;;;4984097;28;20026;-66
2023/11/16 04:21:21;;;;;;;;;;;7.50;99.90;;;;;;4981030;28;20030;-65
2023/11/16 04:23:57;;;;;;;15.95;2.65;;;7.40;99.90;;;;;;4982121;28;20001;-65
2023/11/16 04:26:23;;;;;;;11.75;2.92;;;7.40;99.90;;;;;;4981103;28;20030;-65
2023/11/16 04:28:51;;;;;;;12.20;3.45;;;7.30;99.90;;;;;;4982986;28;20026;-65
2023/11/16 04:31:18;;;;;;;15.77;3.67;;;7.40;99.90;;;;;;4981308;28;20027;-65
2023/11/16 04:33:44;;;;;;;13.73;2.53;;;7.20;99.90;;;;;;4982731;28;20049;-66
2023/11/16 04:36:14;;;;;;;14.07;3.50;;;7.20;99.90;;;;;;4982851;28;20510;-66
2023/11/16 04:38:40;;;;;;;12.55;3.15;;;7.20;99.90;;;;;;4976641;28;20035;-66
2023/11/16 04:41:09;;;;;;;14.40;3.38;;;7.10;99.90;;;;;;4983647;28;20030;-66
2023/11/16 04:43:35;;;;;;;14.15;4.07;;;7.10;99.90;;;;;;4982765;28;20451;-66
2023/11/16 04:46:01;;;;;;;15.40;3.70;;;7.00;99.90;;;;;;4982039;28;20019;-66
2023/11/16 04:48:27;;;;;;;9.52;3.05;;;7.00;99.90;;;;;;4983036;28;20478;-66
2023/11/16 04:50:55;;;;;;;18.38;4.20;;;6.90;99.90;;;;;;4980868;28;20159;-66
2023/11/16 04:53:21;;;;;;;13.27;3.85;;;7.00;99.90;;;;;;4982604;28;20022;-66
2023/11/16 04:55:49;;;;;;;13.90;3.83;;;7.00;99.90;;;;;;4981972;28;20025;-66
2023/11/16 04:58:15;;;;;;;13.75;3.97;;;7.00;99.90;;;;;;4979817;28;20034;-66
2023/11/16 05:00:43;;;;;;;15.52;2.75;;;7.00;99.90;;;;;;4983922;28;20077;-66
2023/11/16 05:03:08;;;;;;;12.23;4.45;;;6.80;99.90;;;;;;4947637;28;20039;-66
2023/11/16 05:05:36;;;;;;;14.73;3.47;;;7.00;99.90;;;;;;4982444;28;20030;-66
2023/11/16 05:08:02;;;;;;;10.35;3.67;;;6.90;99.90;;;;;;4982084;28;20386;-66
2023/11/16 05:10:27;;;;;;;16.50;4.60;;;6.90;99.90;;;;;;4980898;28;20053;-66
2023/11/16 05:12:54;;;;;;;14.90;4.45;;;6.90;99.90;;;;;;4979699;28;20030;-66
2023/11/16 05:15:19;;;;;;;13.48;4.60;;;6.90;99.90;;;;;;4978784;28;20042;-66
2023/11/16 05:17:46;;;;;;;20.02;4.93;;;6.90;99.90;;;;;;4981065;28;20045;-66
2023/11/16 05:20:11;;;;;;;14.60;4.30;;;6.90;99.90;;;;;;4979690;28;20031;-67
2023/11/16 05:22:37;;;;;;;15.32;4.55;;;6.90;99.90;;;;;;4978273;28;20030;-67
2023/11/16 05:25:06;;;;;;;14.82;4.18;;;6.90;99.90;;;;;;4981804;28;20363;-67
2023/11/16 05:27:32;;;;;;;17.55;5.18;;;6.80;99.90;;;;;;4973459;28;20034;-67
2023/11/16 05:29:58;;;;;;;16.38;4.70;;;6.90;99.90;;;;;;4971789;28;20066;-67
2023/11/16 05:32:23;;;;;;;14.68;4.57;;;6.80;99.90;;;;;;4975497;28;20189;-67
2023/11/16 05:34:52;;;;;;;13.93;4.03;;;6.80;99.90;;;;;;4976283;28;20038;-67
2023/11/16 05:37:20;;;;;;;16.10;4.55;;;6.80;99.90;;;;;;4972639;28;20037;-67
2023/11/16 05:39:46;;;;;;;21.60;5.18;;;6.90;99.90;;;;;;4979431;28;20034;-67
2023/11/16 05:42:12;;;;;;;20.92;5.25;;;6.90;99.90;;;;;;4972225;28;20041;-67
2023/11/16 05:44:37;;;;;;;19.20;4.97;;;6.90;99.90;;;;;;4975850;28;20033;-67
2023/11/16 05:47:03;;;;;;;13.05;4.32;;;6.80;99.90;;;;;;4976255;28;20046;-67
2023/11/16 05:49:29;;;;;;;15.85;4.05;;;6.80;99.90;;;;;;4980695;28;20490;-67
2023/11/16 05:51:55;;;;;;;17.02;4.85;;;6.80;99.90;;;;;;4980667;28;20537;-67
2023/11/16 05:54:21;;;;;;;18.17;4.90;;;6.80;99.90;;;;;;4976282;28;20025;-67
2023/11/16 05:56:48;;;;;;;16.40;5.18;;;6.80;99.90;;;;;;4974414;28;20459;-67
2023/11/16 05:59:14;;;;;;;18.25;5.45;;;6.80;99.90;;;;;;4973290;28;20023;-67
2023/11/16 06:01:44;;;;;;;20.80;5.25;;;6.80;99.90;;;;;;4974265;28;20117;-67
2023/11/16 06:04:10;;;;;;;16.27;4.97;;;6.80;99.90;;;;;;4977019;28;20040;-66
2023/11/16 06:06:36;;;;;;;21.05;4.40;;;6.70;99.90;;;;;;4973230;28;20042;-67
2023/11/16 06:09:03;;;;;;;19.77;5.20;;;6.80;99.90;;;;;;4978808;28;20370;-66
2023/11/16 06:11:29;;;;;;;17.73;5.28;;;6.80;99.90;;;;;;4953739;28;20455;-67
2023/11/16 06:13:55;;;;;;;18.60;5.38;;;6.80;99.90;;;;;;4982513;28;20113;-67
2023/11/16 06:16:24;;;;;;;12.52;4.45;;;6.80;99.90;;;;;;4978105;28;20018;-68
2023/11/16 06:18:51;;;;;;;16.88;5.35;;;6.80;99.90;;;;;;4976918;28;20015;-68
2023/11/16 06:21:17;;;;;;;20.33;5.47;;;6.80;99.90;;;;;;4977321;28;20370;-67
2023/11/16 06:23:43;;;;;;;19.70;4.85;;;6.80;99.90;;;;;;4976211;28;20113;-67
2023/11/16 06:26:09;;;;;;;20.80;6.25;;;6.80;99.90;;;;;;4951886;28;20126;-67
2023/11/16 06:28:35;;;;;;;20.92;5.50;;;6.80;99.90;;;;;;4974321;28;20102;-67
2023/11/16 06:31:01;;;;;;;24.50;6.07;;;6.80;99.90;;;;;;4975278;28;20060;-68
2023/11/16 06:33:27;;;;;;;14.32;3.83;;;6.80;99.90;;;;;;4976808;28;21161;-67
2023/11/16 06:35:53;;;;;;;14.73;5.20;;;6.70;99.90;;;;;;4979895;28;20030;-67
2023/11/16 06:38:19;;;;;;;19.10;4.95;;;6.80;99.90;;;;;;4977711;28;20031;-67
2023/11/16 06:40:45;;;;;;;20.20;5.43;;;6.80;99.90;;;;;;4975887;28;20023;-67
2023/11/16 06:43:12;;;;;;;20.60;6.43;;;6.80;99.90;;;;;;4976164;28;20023;-67
2023/11/16 06:45:40;;;;;;;18.95;6.32;;;6.80;99.90;;;;;;4979373;28;20105;-67
2023/11/16 06:48:07;;;;;;;21.85;6.90;;;6.80;99.90;;;;;;4976345;28;20427;-67
2023/11/16 06:50:36;;;;;;;16.23;5.78;;;6.80;99.90;;;;;;4973241;28;20073;-67
2023/11/16 06:53:04;;;;;;;19.30;6.25;;;6.80;99.90;;;;;;4950964;28;20038;-66
2023/11/16 06:55:32;;;;;;;17.58;5.82;;;6.80;99.90;;;;;;4976189;28;20117;-66
2023/11/16 06:58:01;;;;;;;18.88;6.00;;;6.80;99.90;;;;;;4973739;28;20376;-66
2023/11/16 07:00:27;;;;;;;21.33;7.20;;;6.80;99.90;;;;;;4973126;28;20033;-66
2023/11/16 07:02:54;;;;;;;17.77;6.22;;;6.80;99.90;;;;;;4972588;28;20371;-66
2023/11/16 07:05:20;;;;;;;30.30;6.93;;;6.80;99.90;;;;;;4971254;28;20362;-66
2023/11/16 07:07:46;;;;;;;22.75;6.40;;;6.80;99.90;;;;;;4975427;28;20041;-66
2023/11/16 07:10:15;;;;;;;19.13;6.90;;;6.80;99.90;;;;;;4970085;28;20069;-66
2023/11/16 07:12:42;;;;;;;20.58;7.40;;;6.80;99.90;;;;;;4978218;28;20026;-66
2023/11/16 07:15:12;;;;;;;16.13;6.50;;;6.90;99.90;;;;;;4978156;28;20026;-66
2023/11/16 07:17:39;;;;;;;21.27;6.57;;;6.20;99.90;;;;;;4975426;28;20129;-66
2023/11/16 07:20:11;;;;;;;16.85;6.57;;;6.80;99.90;;;;;;4974868;28;20125;-66
2023/11/16 07:22:37;;;;;;;13.30;4.82;;;6.80;99.90;;;;;;4976347;28;20018;-66
2023/11/16 07:25:06;;;;;;;18.48;6.82;;;6.80;99.90;;;;;;4975531;28;20525;-66
2023/11/16 07:27:32;;;;;;;14.00;5.57;;;6.80;99.90;;;;;;4973652;28;20019;-66
2023/11/16 07:30:00;;;;;;;19.70;7.28;;;6.90;99.90;;;;;;4974738;28;20043;-66
2023/11/16 07:32:26;;;;;;;16.95;6.68;;;6.80;99.90;;;;;;4979625;28;20035;-66
2023/11/16 07:34:51;;;;;;;20.02;6.47;;;6.80;99.90;;;;;;4983481;28;20034;-66
2023/11/16 07:37:17;;;;;;;17.23;7.07;;;6.80;99.90;;;;;;4978339;28;20481;-66
2023/11/16 07:39:45;;;;;;;21.38;6.97;;;6.90;99.90;;;;;;4977372;28;20023;-65
2023/11/16 07:42:13;;;;;;;26.80;8.02;;;6.80;99.90;;;;;;4977803;28;20031;-65
2023/11/16 07:44:41;;;;;;;21.63;7.50;;;6.90;99.90;;;;;;4981277;28;20579;-65
2023/11/16 07:47:08;;;;;;;21.30;8.10;;;6.90;99.90;;;;;;4976988;28;20030;-65
2023/11/16 07:49:38;;;;;;;29.80;7.72;;;6.90;99.90;;;;;;4975144;28;20447;-65
2023/11/16 07:52:04;;;;;;;19.85;7.18;;;6.90;99.90;;;;;;4982605;28;20045;-65
2023/11/16 07:54:31;;;;;;;19.40;7.25;;;7.00;99.90;;;;;;4980427;28;20075;-65
2023/11/16 07:57:01;;;;;;;20.52;7.85;;;7.10;99.90;;;;;;4981338;28;20408;-65
2023/11/16 07:59:37;;;;;;;20.85;7.97;;;7.10;99.90;;;;;;4979298;28;20076;-65
2023/11/16 08:02:02;;;;;;;22.83;7.80;;;7.00;99.90;;;;;;4949779;28;20023;-65
2023/11/16 08:04:29;;;;;;;19.42;7.75;;;7.00;99.90;;;;;;4977873;28;20026;-65
2023/11/16 08:06:56;;;;;;;20.40;8.10;;;7.10;99.90;;;;;;4981168;28;20038;-65
2023/11/16 08:09:24;;;;;;;27.00;8.27;;;7.10;99.90;;;;;;4978406;28;20038;-65
2023/11/16 08:11:54;;;;;;;22.00;8.80;;;7.10;99.90;;;;;;4980350;28;20045;-67
2023/11/16 08:14:30;;;;;;;27.80;9.17;;;7.20;99.90;;;;;;4980181;28;20454;-67
2023/11/16 08:16:58;;;;;;;19.40;7.70;;;7.20;99.90;;;;;;4981461;28;20274;-67
2023/11/16 08:19:29;;;;;;;22.95;7.93;;;7.30;99.90;;;;;;4979931;28;20161;-66
2023/11/16 08:21:56;;;;;;;19.67;8.43;;;7.40;99.90;;;;;;4973381;28;20073;-68
2023/11/16 08:24:27;;;;;;;19.10;7.40;;;7.50;99.90;;;;;;4973988;28;20025;-65
2023/11/16 08:26:52;;;;;;;24.17;7.43;;;7.50;99.90;;;;;;4978740;28;20030;-67
2023/11/16 08:29:18;;;;;;;18.08;6.57;;;7.60;99.90;;;;;;4947585;28;20046;-65
2023/11/16 08:31:52;;;;;;;14.00;6.03;;;7.70;99.90;;;;;;4978209;28;20085;-65
2023/11/16 08:34:19;;;;;;;18.92;7.32;;;7.80;99.90;;;;;;4980628;28;20397;-65
2023/11/16 08:36:45;;;;;;;21.77;7.35;;;7.80;99.90;;;;;;4982598;28;20077;-67
2023/11/16 08:39:14;;;;;;;18.13;6.50;;;7.80;99.90;;;;;;4980522;28;20126;-66
2023/11/16 08:41:42;;;;;;;22.42;6.68;;;7.70;99.90;;;;;;4972223;28;20026;-65
2023/11/16 08:44:10;;;;;;;17.48;5.70;;;7.80;99.90;;;;;;4979119;28;20026;-65
2023/11/16 08:46:41;;;;;;;21.25;6.07;;;7.80;99.90;;;;;;4977087;28;20101;-65
2023/11/16 08:49:09;;;;;;;18.42;6.07;;;7.70;99.90;;;;;;4979611;28;20035;-63
2023/11/16 08:51:38;;;;;;;14.88;6.13;;;7.80;99.90;;;;;;4977179;28;20438;-64
2023/11/16 08:54:08;;;;;;;18.55;6.43;;;7.70;99.90;;;;;;4976905;28;20027;-64
2023/11/16 08:56:35;;;;;;;18.35;6.65;;;7.70;99.90;;;;;;4976083;28;20149;-64
2023/11/16 08:59:07;;;;;;;21.15;7.20;;;7.70;99.90;;;;;;4978351;28;20065;-63
2023/11/16 09:01:35;;;;;;;18.75;5.75;;;7.70;99.90;;;;;;4977461;28;20097;-63
2023/11/16 09:04:01;;;;;;;18.40;6.40;;;7.70;99.90;;;;;;4976044;28;20439;-63
2023/11/16 09:06:27;;;;;;;19.55;6.43;;;7.70;99.90;;;;;;4976998;28;20481;-63
2023/11/16 09:08:56;;;;;;;18.23;6.55;;;7.60;99.90;;;;;;4977971;28;20031;-63
2023/11/16 09:11:27;;;;;;;22.38;6.43;;;7.70;99.90;;;;;;4974688;28;20379;-63
2023/11/16 09:13:53;;;;;;;21.17;7.05;;;7.60;99.90;;;;;;4974214;28;20501;-63
2023/11/16 09:16:18;;;;;;;18.23;7.43;;;7.60;99.90;;;;;;4975721;28;20059;-63
2023/11/16 09:18:45;;;;;;;20.92;6.75;;;7.50;99.90;;;;;;4974333;28;20046;-63
2023/11/16 09:21:14;;;;;;;16.98;5.88;;;7.60;99.90;;;;;;4978542;28;20022;-64
2023/11/16 09:23:40;;;;;;;24.77;8.10;;;7.50;99.90;;;;;;4977392;28;20034;-64
2023/11/16 09:26:11;;;;;;;18.25;6.47;;;7.60;99.90;;;;;;4980179;28;20033;-64
2023/11/16 09:28:38;;;;;;;21.65;6.95;;;7.60;99.90;;;;;;4972129;28;20023;-64
2023/11/16 09:31:10;;;;;;;20.95;7.00;;;7.60;99.90;;;;;;4980583;28;20110;-64
2023/11/16 09:33:38;;;;;;;25.90;6.43;;;7.60;99.90;;;;;;4977192;28;20084;-64
2023/11/16 09:36:04;;;;;;;20.52;7.28;;;7.70;99.90;;;;;;4976828;28;20046;-64
2023/11/16 09:38:30;;;;;;;20.33;7.43;;;7.70;99.90;;;;;;4969913;28;20466;-64
2023/11/16 09:41:01;;;;;;;23.10;8.00;;;7.70;99.90;;;;;;4980204;28;20038;-64
2023/11/16 09:43:30;;;;;;;20.23;9.10;;;7.80;99.90;;;;;;4975738;28;20069;-64
2023/11/16 09:45:57;;;;;;;19.85;7.78;;;7.80;99.90;;;;;;4974725;28;20054;-64
2023/11/16 09:48:24;;;;;;;23.90;8.05;;;7.90;99.90;;;;;;4969830;28;20023;-64
2023/11/16 09:50:53;;;;;;;21.38;8.90;;;7.80;99.90;;;;;;4977310;28;20030;-64
2023/11/16 09:53:23;;;;;;;25.20;8.70;;;7.80;99.90;;;;;;4968461;28;20031;-64
2023/11/16 09:55:56;;;;;;;25.67;9.32;;;7.80;99.90;;;;;;4976937;28;20031;-64
2023/11/16 09:58:28;;;;;;;19.48;9.00;;;7.80;99.90;;;;;;4975831;28;20035;-64
2023/11/16 10:00:56;;;;;;;21.13;9.00;;;7.80;99.90;;;;;;4980959;28;20532;-64
2023/11/16 10:03:31;;;;;;;19.98;8.82;;;7.90;99.90;;;;;;4976592;28;20030;-64
2023/11/16 10:05:58;;;;;;;23.52;8.70;;;7.90;99.90;;;;;;4979833;28;20023;-64
2023/11/16 10:08:28;;;;;;;20.17;8.40;;;8.00;99.90;;;;;;4975302;28;20037;-64
2023/11/16 10:11:02;;;;;;;26.33;8.98;;;8.10;99.90;;;;;;4976089;28;20034;-64
2023/11/16 10:13:29;;;;;;;24.20;9.07;;;8.10;99.90;;;;;;4976833;28;20078;-64
2023/11/16 10:16:03;;;;;;;23.80;8.65;;;8.10;99.90;;;;;;4975522;28;20366;-64
2023/11/16 10:18:31;;;;;;;26.58;8.55;;;8.30;99.90;;;;;;4964026;28;20023;-63
2023/11/16 10:20:57;;;;;;;18.98;8.55;;;8.30;99.90;;;;;;4975294;28;20478;-63
2023/11/16 10:23:24;;;;;;;20.92;8.48;;;8.30;99.90;;;;;;4976350;28;20027;-63
2023/11/16 10:25:50;;;;;;;20.65;8.95;;;8.30;99.90;;;;;;4977234;28;20031;-63
2023/11/16 10:28:20;;;;;;;19.45;8.48;;;8.40;99.90;;;;;;4974818;28;20546;-63
2023/11/16 10:30:53;;;;;;;19.38;7.82;;;8.30;99.90;;;;;;4949216;28;20038;-63
2023/11/16 10:33:23;;;;;;;21.25;7.80;;;8.40;99.90;;;;;;4976834;28;20034;-63
2023/11/16 10:35:49;;;;;;;24.50;8.65;;;8.50;99.90;;;;;;4967104;28;20031;-63
2023/11/16 10:38:28;;;;;;;20.80;8.55;;;8.60;99.90;;;;;;4978138;28;20031;-63
2023/11/16 10:40:55;;;;;;;26.00;8.55;;;8.70;99.90;;;;;;4975507;28;20084;-63
2023/11/16 10:43:28;;;;;;;18.30;8.18;;;8.60;99.90;;;;;;4972957;28;20024;-64
2023/11/16 10:46:02;;;;;;;25.95;8.57;;;8.70;99.90;;;;;;4973413;28;20038;-63
2023/11/16 10:48:28;;;;;;;25.10;7.75;;;8.60;99.90;;;;;;4972956;28;20040;-64
2023/11/16 10:51:00;;;;;;;18.25;7.65;;;8.60;99.90;;;;;;4977848;28;20176;-64
2023/11/16 10:53:37;;;;;;;24.63;8.48;;;8.70;99.90;;;;;;4974840;28;20031;-64
2023/11/16 10:56:07;;;;;;;19.95;8.13;;;8.70;99.90;;;;;;4976316;28;20550;-64
2023/11/16 10:58:38;;;;;;;;;;;8.80;99.90;;;;;;4976154;28;20439;-64
2023/11/16 11:01:09;;;;;;;20.05;7.88;;;8.80;99.90;;;;;;4980700;28;19924;-64
2023/11/16 11:03:35;;;;;;;20.15;8.30;;;8.80;99.90;;;;;;4976031;28;20027;-64
2023/11/16 11:06:03;;;;;;;20.55;8.70;;;8.90;99.90;;;;;;4974956;28;20471;-64
2023/11/16 11:08:40;;;;;;;21.60;7.95;;;8.90;99.90;;;;;;4976232;28;20023;-64
2023/11/16 11:11:08;;;;;;;20.38;8.55;;;9.00;99.90;;;;;;4953192;28;20574;-64
2023/11/16 11:13:34;;;;;;;25.45;9.48;;;9.10;99.90;;;;;;4958890;28;20427;-64
2023/11/16 11:16:08;;;;;;;19.65;8.52;;;9.00;99.90;;;;;;4926703;29;20087;-65
2023/11/16 11:18:45;;;;;;;23.10;8.60;;;9.00;99.90;;;;;;4958137;28;20026;-65
2023/11/16 11:21:16;;;;;;;18.98;8.40;;;9.00;99.90;;;;;;4961385;28;20123;-65
2023/11/16 11:23:42;;;;;;;19.40;8.18;;;8.90;99.90;;;;;;4956210;28;20023;-63
2023/11/16 11:26:13;;;;;;;21.70;8.82;;;8.90;99.90;;;;;;4958911;28;20482;-63
2023/11/16 11:28:41;;;;;;;22.52;9.15;;;8.70;99.90;;;;;;4959818;28;20030;-63
2023/11/16 11:31:10;;;;;;;27.23;10.48;;;8.70;99.90;;;;;;4959388;28;20566;-63
2023/11/16 11:33:42;;;;;;;26.55;10.25;;;8.70;99.90;;;;;;4963523;28;20076;-63
2023/11/16 11:36:26;;;;;;;23.95;9.13;;;8.60;99.90;;;;;;4961560;28;20148;-64
2023/11/16 11:38:53;;;;;;;19.77;9.00;;;8.60;99.90;;;;;;4959872;28;20063;-64
2023/11/16 11:41:19;;;;;;;21.17;8.85;;;8.60;99.90;;;;;;4959042;28;20061;-64
2023/11/16 11:43:45;;;;;;;24.17;9.27;;;8.50;99.90;;;;;;4930855;28;20219;-64
2023/11/16 11:46:16;;;;;;;33.75;10.48;;;8.50;99.90;;;;;;4959880;28;20413;-64
2023/11/16 11:48:42;;;;;;;20.10;8.50;;;8.40;99.90;;;;;;4954330;28;20027;-64
2023/11/16 11:51:09;;;;;;;23.15;8.25;;;8.40;99.90;;;;;;4961542;28;20039;-64
2023/11/16 11:53:36;;;;;;;25.23;8.93;;;8.30;99.90;;;;;;4952841;28;20082;-64
2023/11/16 11:56:06;;;;;;;21.05;9.23;;;8.40;99.90;;;;;;4959067;28;20123;-64
2023/11/16 11:58:32;;;;;;;21.55;9.65;;;8.30;99.90;;;;;;4953976;28;20027;-64
2023/11/16 12:00:59;;;;;;;21.50;8.77;;;8.30;99.90;;;;;;4961548;28;20038;-64
2023/11/16 12:03:25;;;;;;;20.88;9.00;;;8.30;99.90;;;;;;4958987;28;20066;-64
2023/11/16 12:06:18;;;;;;;25.75;8.43;;;8.20;99.90;;;;;;4962499;28;20034;-64
2023/11/16 12:08:51;;;;;;;24.98;8.80;;;8.20;99.90;;;;;;4955223;28;20059;-64
2023/11/16 12:11:20;;;;;;;21.73;9.50;;;8.20;99.90;;;;;;4956856;28;20483;-64
2023/11/16 12:13:46;;;;;;;19.83;9.30;;;8.10;99.90;;;;;;4960854;28;20035;-64
2023/11/16 12:16:16;;;;;;;24.20;9.15;;;8.10;99.90;;;;;;4959866;28;20031;-64
2023/11/16 12:18:45;;;;;;;26.17;10.73;;;8.10;99.90;;;;;;4955766;28;20027;-67
2023/11/16 12:21:11;;;;;;;29.60;11.65;;;8.00;99.90;;;;;;4939895;28;20043;-64
2023/11/16 12:23:50;;;;;;;31.58;11.77;;;8.00;99.90;;;;;;4955714;28;20035;-65
2023/11/16 12:26:17;;;;;;;28.10;10.82;;;8.00;99.90;;;;;;4924775;28;20027;-64
2023/11/16 12:28:43;;;;;;;27.08;11.00;;;8.00;99.90;;;;;;4951969;28;20038;-64
2023/11/16 12:31:11;;;;;;;25.52;10.32;;;8.00;99.90;;;;;;4957992;28;20027;-65
2023/11/16 12:33:37;;;;;;;21.63;9.43;;;7.90;99.90;;;;;;4957294;28;20027;-64
2023/11/16 12:36:04;;;;;;;23.60;10.63;;;7.90;99.90;;;;;;4961717;28;20416;-64
2023/11/16 12:38:30;;;;;;;24.17;10.02;;;7.90;99.90;;;;;;4956165;28;20035;-64
2023/11/16 12:40:57;;;;;;;24.65;10.85;;;7.90;99.90;;;;;;4957895;28;20030;-64
2023/11/16 12:43:23;;;;;;;25.10;9.80;;;7.90;99.90;;;;;;4958552;28;20406;-64
2023/11/16 12:45:51;;;;;;;24.95;10.82;;;7.90;99.90;;;;;;4956041;28;20565;-64
2023/11/16 12:48:16;;;;;;;25.80;10.15;;;7.80;99.90;;;;;;4925059;28;20133;-65
2023/11/16 12:50:44;;;;;;;26.25;11.10;;;7.80;99.90;;;;;;4942805;28;20318;-65